createdAt,value
2023-07-20T00:03:26.299Z,22.62
2023-07-20T00:08:28.676Z,22.61
2023-07-20T00:13:30.818Z,22.41
2023-07-20T00:18:33.040Z,22.19
2023-07-20T00:23:36.469Z,22.12
2023-07-20T00:28:39.015Z,22.00
2023-07-20T00:33:41.159Z,21.93
2023-07-20T00:38:43.873Z,21.85
2023-07-20T00:43:45.977Z,22.01
2023-07-20T00:48:48.121Z,22.12
2023-07-20T00:53:50.598Z,22.22
2023-07-20T00:58:53.837Z,22.23
2023-07-20T01:03:55.977Z,22.13
2023-07-20T01:09:14.537Z,22.30
2023-07-20T01:14:18.013Z,22.35
2023-07-20T01:19:20.241Z,22.34
2023-07-20T01:24:25.620Z,22.37
2023-07-20T01:30:05.775Z,22.37
2023-07-20T01:35:09.409Z,22.43
2023-07-20T01:40:12.779Z,22.35
2023-07-20T01:45:15.176Z,22.44
2023-07-20T01:50:18.669Z,22.38
2023-07-20T01:55:20.785Z,22.50
2023-07-20T02:00:25.213Z,22.51
2023-07-20T02:05:27.601Z,22.44
2023-07-20T02:10:29.854Z,22.42
2023-07-20T02:15:31.998Z,22.44
2023-07-20T02:20:34.105Z,22.52
2023-07-20T02:25:36.277Z,22.33
2023-07-20T02:30:41.284Z,22.26
2023-07-20T02:35:43.465Z,22.22
2023-07-20T02:40:45.607Z,22.21
2023-07-20T02:45:47.829Z,22.20
2023-07-20T02:50:49.997Z,22.43
2023-07-20T02:55:52.156Z,22.43
2023-07-20T03:00:54.344Z,22.46
2023-07-20T03:05:58.702Z,22.37
2023-07-20T03:11:00.882Z,22.21
2023-07-20T03:16:03.326Z,22.09
2023-07-20T03:21:09.620Z,21.95
2023-07-20T03:26:11.896Z,21.90
2023-07-20T03:31:14.299Z,21.86
2023-07-20T03:36:16.474Z,21.93
2023-07-20T03:41:18.946Z,21.90
2023-07-20T03:46:21.584Z,21.97
2023-07-20T03:51:24.051Z,22.06
2023-07-20T03:56:26.151Z,22.04
2023-07-20T04:01:28.337Z,22.22
2023-07-20T04:06:30.604Z,22.21
2023-07-20T04:11:32.814Z,22.22
2023-07-20T04:16:35.170Z,22.15
2023-07-20T04:21:44.605Z,22.18
2023-07-20T04:26:46.780Z,22.08
2023-07-20T04:31:48.997Z,22.10
2023-07-20T04:36:51.163Z,22.03
2023-07-20T04:41:53.338Z,22.02
2023-07-20T04:46:55.604Z,22.06
2023-07-20T04:51:58.164Z,22.15
2023-07-20T04:57:00.510Z,22.40
2023-07-20T05:02:02.741Z,22.61
2023-07-20T05:07:05.226Z,22.76
2023-07-20T05:12:08.573Z,22.83
2023-07-20T05:17:11.282Z,22.87
2023-07-20T05:22:15.179Z,22.84
2023-07-20T05:27:17.826Z,23.01
2023-07-20T05:32:20.889Z,23.02
2023-07-20T05:37:23.205Z,23.06
2023-07-20T05:42:25.478Z,23.05
2023-07-20T05:47:27.680Z,23.21
2023-07-20T05:52:29.925Z,23.33
2023-07-20T05:57:32.266Z,23.45
2023-07-20T06:02:34.609Z,23.60
2023-07-20T06:07:39.951Z,23.66
2023-07-20T06:12:42.305Z,23.74
2023-07-20T06:17:44.476Z,23.79
2023-07-20T06:22:47.041Z,24.06
2023-07-20T06:27:52.543Z,24.04
2023-07-20T06:32:54.900Z,24.09
2023-07-20T06:37:57.165Z,24.27
2023-07-20T06:48:04.954Z,24.03
2023-07-20T06:53:07.187Z,24.06
2023-07-20T06:58:09.657Z,24.09
2023-07-20T07:03:12.046Z,24.34
2023-07-20T07:08:14.356Z,24.46
2023-07-20T07:13:18.286Z,24.71
2023-07-20T07:18:21.840Z,24.63
2023-07-20T07:23:24.103Z,24.91
2023-07-20T07:28:26.271Z,24.87
2023-07-20T07:33:28.418Z,25.05
2023-07-20T07:38:49.337Z,25.47
2023-07-20T07:43:52.966Z,25.50
2023-07-20T07:48:56.569Z,25.61
2023-07-20T07:53:58.738Z,25.69
2023-07-20T07:59:01.149Z,26.32
2023-07-20T08:04:05.021Z,27.99
2023-07-20T08:09:07.262Z,29.07
2023-07-20T08:14:09.428Z,30.20
2023-07-20T08:19:11.713Z,30.38
2023-07-20T08:24:14.028Z,31.22
2023-07-20T08:29:16.415Z,31.67
2023-07-20T08:34:29.737Z,32.00
2023-07-20T08:39:33.514Z,31.51
2023-07-20T08:44:37.830Z,33.04
2023-07-20T08:49:40.705Z,33.93
2023-07-20T08:54:42.890Z,32.64
2023-07-20T08:59:45.817Z,30.31
2023-07-20T09:04:47.982Z,28.95
2023-07-20T09:09:50.164Z,28.27
2023-07-20T09:14:52.286Z,27.74
2023-07-20T09:19:55.684Z,27.75
2023-07-20T09:24:59.142Z,28.24
2023-07-20T09:30:01.443Z,27.50
2023-07-20T09:45:17.671Z,29.91
2023-07-20T09:55:31.287Z,29.12
2023-07-20T10:05:47.485Z,32.76
2023-07-20T10:10:50.317Z,33.46
2023-07-20T10:15:56.225Z,32.53
2023-07-20T10:26:07.487Z,32.71
2023-07-20T10:31:11.641Z,32.00
2023-07-20T10:36:14.037Z,34.16
2023-07-20T10:41:30.018Z,32.94
2023-07-20T10:46:39.353Z,31.95
2023-07-20T10:51:49.910Z,31.11
2023-07-20T10:56:52.369Z,29.88
2023-07-20T11:02:01.415Z,29.66
2023-07-20T11:07:03.854Z,29.79
2023-07-20T11:12:14.912Z,29.32
2023-07-20T11:17:21.357Z,30.02
2023-07-20T11:22:23.852Z,31.24
2023-07-20T11:27:25.997Z,32.52
2023-07-20T11:32:28.216Z,32.96
2023-07-20T11:37:31.918Z,34.96
2023-07-20T11:47:45.819Z,35.36
2023-07-20T11:52:48.451Z,36.48
2023-07-20T11:58:06.871Z,35.24
2023-07-20T12:03:12.375Z,35.95
2023-07-20T12:08:15.371Z,36.33
2023-07-20T12:13:17.533Z,37.02
2023-07-20T12:18:19.752Z,36.12
2023-07-20T12:23:22.016Z,37.07
2023-07-20T12:28:24.210Z,35.56
2023-07-20T12:33:26.452Z,37.06
2023-07-20T12:38:34.493Z,36.66
2023-07-20T12:43:36.770Z,37.18
2023-07-20T12:48:39.191Z,36.62
2023-07-20T12:53:41.441Z,36.84
2023-07-20T12:58:43.679Z,35.92
2023-07-20T13:08:52.197Z,35.16
2023-07-20T13:13:54.501Z,35.86
2023-07-20T13:18:57.089Z,37.85
2023-07-20T13:23:59.588Z,35.64
2023-07-20T13:29:01.850Z,37.20
2023-07-20T13:34:04.389Z,37.60
2023-07-20T13:39:06.777Z,36.35
2023-07-20T13:44:09.058Z,35.95
2023-07-20T13:49:13.451Z,35.34
2023-07-20T13:59:21.453Z,35.27
2023-07-20T14:04:23.894Z,34.51
2023-07-20T14:09:26.079Z,35.62
2023-07-20T14:14:28.250Z,34.82
2023-07-20T14:19:30.409Z,35.12
2023-07-20T14:24:32.628Z,34.83
2023-07-20T14:29:37.680Z,34.76
2023-07-20T14:34:40.639Z,36.72
2023-07-20T14:39:42.782Z,35.80
2023-07-20T14:44:46.225Z,35.04
2023-07-20T14:49:49.534Z,35.00
2023-07-20T14:54:51.641Z,35.64
2023-07-20T14:59:53.785Z,34.30
2023-07-20T15:04:56.977Z,34.69
2023-07-20T15:09:59.222Z,34.35
2023-07-20T15:15:08.775Z,35.23
2023-07-20T15:20:13.735Z,34.74
2023-07-20T15:25:16.817Z,33.80
2023-07-20T15:35:25.272Z,33.36
2023-07-20T15:40:27.458Z,33.21
2023-07-20T15:45:31.115Z,33.90
2023-07-20T15:50:33.338Z,34.37
2023-07-20T15:55:36.233Z,33.99
2023-07-20T16:00:38.882Z,34.22
2023-07-20T16:05:41.214Z,33.36
2023-07-20T16:10:43.427Z,32.72
2023-07-20T16:20:50.767Z,32.31
2023-07-20T16:25:53.378Z,31.41
2023-07-20T16:30:58.551Z,30.72
2023-07-20T16:36:00.758Z,29.77
2023-07-20T16:41:02.910Z,30.24
2023-07-20T16:52:05.254Z,29.34
2023-07-20T16:57:09.600Z,28.71
2023-07-20T17:02:15.550Z,28.20
2023-07-20T17:07:17.757Z,27.96
2023-07-20T17:12:19.985Z,28.35
2023-07-20T17:17:24.330Z,28.92
2023-07-20T17:22:26.686Z,28.71
2023-07-20T17:27:29.044Z,28.91
2023-07-20T17:32:31.273Z,28.72
2023-07-20T17:47:49.995Z,27.41
2023-07-20T17:52:52.443Z,27.26
2023-07-20T17:57:54.582Z,27.14
2023-07-20T18:02:59.416Z,27.05
2023-07-20T18:08:01.756Z,26.84
2023-07-20T18:13:04.922Z,26.59
2023-07-20T18:18:08.173Z,26.41
2023-07-20T18:23:10.447Z,26.44
2023-07-20T18:28:12.707Z,26.14
2023-07-20T18:33:14.896Z,25.97
2023-07-20T18:38:17.199Z,25.74
2023-07-20T18:43:19.523Z,25.39
2023-07-20T18:48:21.931Z,25.22
2023-07-20T18:53:24.093Z,25.25
2023-07-20T18:58:26.258Z,25.00
2023-07-20T19:03:28.694Z,24.89
2023-07-20T19:08:31.704Z,24.75
2023-07-20T19:13:34.495Z,24.67
2023-07-20T19:18:40.636Z,24.65
2023-07-20T19:23:42.974Z,24.48
2023-07-20T19:28:46.672Z,24.17
2023-07-20T19:33:50.801Z,23.89
2023-07-20T19:38:53.200Z,23.65
2023-07-20T19:43:55.555Z,23.53
2023-07-20T19:49:05.796Z,23.32
2023-07-20T19:59:15.200Z,23.29
2023-07-20T20:09:26.170Z,23.17
2023-07-20T20:14:29.013Z,23.20
2023-07-20T20:19:31.227Z,23.01
2023-07-20T20:24:33.592Z,22.90
2023-07-20T20:29:36.624Z,22.73
2023-07-20T20:34:38.856Z,22.78
2023-07-20T20:39:41.451Z,22.54
2023-07-20T20:44:43.642Z,22.45
2023-07-20T20:49:50.698Z,22.35
2023-07-20T20:54:53.041Z,22.15
2023-07-20T20:59:55.223Z,21.98
2023-07-20T21:04:58.112Z,21.87
2023-07-20T21:10:00.250Z,21.78
2023-07-20T21:15:06.496Z,21.69
2023-07-20T21:20:09.795Z,21.58
2023-07-20T21:25:12.032Z,21.50
2023-07-20T21:30:14.320Z,21.32
2023-07-20T21:35:16.613Z,21.20
2023-07-20T21:40:18.948Z,21.14
2023-07-20T21:45:24.231Z,21.03
2023-07-20T21:50:26.552Z,20.95
2023-07-20T21:55:30.024Z,20.96
2023-07-20T22:00:32.199Z,20.79
2023-07-20T22:05:34.579Z,20.70
2023-07-20T22:10:36.783Z,20.61
2023-07-20T22:15:38.946Z,20.56
2023-07-20T22:20:41.103Z,20.58
2023-07-20T22:25:43.299Z,20.50
2023-07-20T22:30:45.924Z,20.38
2023-07-20T22:35:48.438Z,20.49
2023-07-20T22:40:50.592Z,20.41
2023-07-20T22:45:53.859Z,20.17
2023-07-20T22:50:59.860Z,20.09
2023-07-20T22:56:02.489Z,20.08
2023-07-20T23:01:12.058Z,20.03
2023-07-20T23:06:14.255Z,19.98
2023-07-20T23:11:17.679Z,19.82
2023-07-20T23:16:20.418Z,19.78
2023-07-20T23:21:22.615Z,19.70
2023-07-20T23:26:25.192Z,19.59
2023-07-20T23:31:28.325Z,19.59
2023-07-20T23:36:30.645Z,19.58
2023-07-20T23:41:33.273Z,19.51
2023-07-20T23:46:35.462Z,19.44
2023-07-20T23:51:38.003Z,19.41
2023-07-20T23:56:40.293Z,19.36
